createdAt,value
2022-10-07T00:01:09.800Z,100.00
2022-10-07T00:03:37.647Z,100.00
2022-10-07T00:06:07.203Z,100.00
2022-10-07T00:08:40.560Z,100.00
2022-10-07T00:11:17.803Z,100.00
2022-10-07T00:13:48.577Z,100.00
2022-10-07T00:16:21.045Z,100.00
2022-10-07T00:18:48.880Z,100.00
2022-10-07T00:21:18.908Z,100.00
2022-10-07T00:23:48.548Z,100.00
2022-10-07T00:26:20.630Z,100.00
2022-10-07T00:28:49.618Z,100.00
2022-10-07T00:31:26.031Z,100.00
2022-10-07T00:33:56.070Z,100.00
2022-10-07T00:36:29.314Z,100.00
2022-10-07T00:39:07.351Z,100.00
2022-10-07T00:41:42.593Z,100.00
2022-10-07T00:44:32.350Z,100.00
2022-10-07T00:47:05.516Z,100.00
2022-10-07T00:50:04.616Z,100.00
2022-10-07T00:52:39.105Z,100.00
2022-10-07T00:55:15.240Z,100.00
2022-10-07T00:57:44.893Z,100.00
2022-10-07T01:00:13.844Z,100.00
2022-10-07T01:02:41.992Z,100.00
2022-10-07T01:05:11.172Z,100.00
2022-10-07T01:07:39.259Z,100.00
2022-10-07T01:10:09.445Z,100.00
2022-10-07T01:13:22.129Z,100.00
2022-10-07T01:16:10.635Z,100.00
2022-10-07T01:19:01.194Z,100.00
2022-10-07T01:21:41.296Z,100.00
2022-10-07T01:24:55.113Z,100.00
2022-10-07T01:27:27.251Z,100.00
2022-10-07T01:30:03.488Z,100.00
2022-10-07T01:32:55.096Z,100.00
2022-10-07T01:35:32.903Z,100.00
2022-10-07T01:38:07.062Z,100.00
2022-10-07T01:40:45.471Z,100.00
2022-10-07T01:43:20.624Z,100.00
2022-10-07T01:45:51.641Z,100.00
2022-10-07T01:48:19.824Z,100.00
2022-10-07T01:50:48.536Z,100.00
2022-10-07T01:53:50.012Z,100.00
2022-10-07T01:56:51.810Z,100.00
2022-10-07T01:59:42.735Z,100.00
2022-10-07T02:02:56.620Z,100.00
2022-10-07T02:05:38.309Z,100.00
2022-10-07T02:08:26.680Z,100.00
2022-10-07T02:11:16.637Z,100.00
2022-10-07T02:14:12.579Z,100.00
2022-10-07T02:17:04.561Z,100.00
2022-10-07T02:19:41.027Z,100.00
2022-10-07T02:22:11.850Z,100.00
2022-10-07T02:24:41.984Z,100.00
2022-10-07T02:27:16.551Z,100.00
2022-10-07T02:29:52.905Z,100.00
2022-10-07T02:32:25.489Z,100.00
2022-10-07T02:35:03.304Z,100.00
2022-10-07T02:37:38.004Z,100.00
2022-10-07T02:40:12.091Z,100.00
2022-10-07T02:43:03.689Z,100.00
2022-10-07T02:46:20.440Z,100.00
2022-10-07T02:49:03.165Z,100.00
2022-10-07T02:51:54.960Z,100.00
2022-10-07T02:54:32.473Z,100.00
2022-10-07T02:57:02.169Z,100.00
2022-10-07T02:59:32.365Z,100.00
2022-10-07T03:02:02.955Z,100.00
2022-10-07T03:04:31.498Z,100.00
2022-10-07T03:07:01.271Z,100.00
2022-10-07T03:09:31.590Z,100.00
2022-10-07T03:12:00.514Z,100.00
2022-10-07T03:14:29.621Z,100.00
2022-10-07T03:16:57.522Z,100.00
2022-10-07T03:19:25.513Z,100.00
2022-10-07T03:21:57.245Z,100.00
2022-10-07T03:24:25.572Z,100.00
2022-10-07T03:26:54.302Z,100.00
2022-10-07T03:29:23.231Z,100.00
2022-10-07T03:31:51.541Z,100.00
2022-10-07T03:34:19.413Z,100.00
2022-10-07T03:36:49.865Z,100.00
2022-10-07T03:39:17.829Z,100.00
2022-10-07T03:41:47.304Z,100.00
2022-10-07T03:44:15.539Z,100.00
2022-10-07T03:46:43.749Z,100.00
2022-10-07T03:49:12.266Z,100.00
2022-10-07T03:51:40.669Z,100.00
2022-10-07T03:54:10.295Z,100.00
2022-10-07T03:56:39.618Z,100.00
2022-10-07T03:59:07.518Z,100.00
2022-10-07T04:01:36.015Z,100.00
2022-10-07T04:04:04.287Z,100.00
2022-10-07T04:06:36.352Z,100.00
2022-10-07T04:09:09.660Z,100.00
2022-10-07T04:11:40.639Z,100.00
2022-10-07T04:14:10.024Z,100.00
2022-10-07T04:16:39.800Z,100.00
2022-10-07T04:19:10.055Z,100.00
2022-10-07T04:21:37.991Z,100.00
2022-10-07T04:24:06.009Z,100.00
2022-10-07T04:26:34.102Z,100.00
2022-10-07T04:29:03.052Z,100.00
2022-10-07T04:31:31.799Z,100.00
2022-10-07T04:34:04.836Z,100.00
2022-10-07T04:36:36.794Z,100.00
2022-10-07T04:39:13.853Z,100.00
2022-10-07T04:41:48.223Z,100.00
2022-10-07T04:44:21.232Z,100.00
2022-10-07T04:46:58.917Z,100.00
2022-10-07T04:49:28.708Z,100.00
2022-10-07T04:51:58.997Z,100.00
2022-10-07T04:54:32.027Z,100.00
2022-10-07T04:57:00.388Z,100.00
2022-10-07T04:59:30.156Z,100.00
2022-10-07T05:01:59.156Z,100.00
2022-10-07T05:04:28.648Z,100.00
2022-10-07T05:06:57.947Z,100.00
2022-10-07T05:09:26.549Z,100.00
2022-10-07T05:11:57.538Z,100.00
2022-10-07T05:14:25.529Z,100.00
2022-10-07T05:16:54.216Z,100.00
2022-10-07T05:19:26.072Z,100.00
2022-10-07T05:21:55.215Z,100.00
2022-10-07T05:24:24.382Z,100.00
2022-10-07T05:26:52.362Z,100.00
2022-10-07T05:29:20.769Z,100.00
2022-10-07T05:31:52.309Z,100.00
2022-10-07T05:34:23.865Z,100.00
2022-10-07T05:36:53.646Z,100.00
2022-10-07T05:39:21.533Z,100.00
2022-10-07T05:41:56.398Z,100.00
2022-10-07T05:44:31.447Z,100.00
2022-10-07T05:47:02.121Z,100.00
2022-10-07T05:49:30.880Z,100.00
2022-10-07T05:51:59.505Z,100.00
2022-10-07T05:54:27.478Z,100.00
2022-10-07T05:56:57.287Z,100.00
2022-10-07T05:59:26.008Z,100.00
2022-10-07T06:02:01.048Z,100.00
2022-10-07T06:04:30.250Z,100.00
2022-10-07T06:06:58.104Z,100.00
2022-10-07T06:09:44.854Z,100.00
2022-10-07T06:12:34.634Z,100.00
2022-10-07T06:15:09.829Z,100.00
2022-10-07T06:17:45.291Z,100.00
2022-10-07T06:20:16.139Z,100.00
2022-10-07T06:22:45.386Z,100.00
2022-10-07T06:25:15.386Z,100.00
2022-10-07T06:27:48.425Z,100.00
2022-10-07T06:30:19.391Z,100.00
2022-10-07T06:32:47.373Z,100.00
2022-10-07T06:35:15.403Z,100.00
2022-10-07T06:37:43.742Z,100.00
2022-10-07T06:40:12.496Z,100.00
2022-10-07T06:42:40.953Z,100.00
2022-10-07T06:45:44.328Z,100.00
2022-10-07T06:48:14.013Z,100.00
2022-10-07T06:50:54.077Z,100.00
2022-10-07T06:53:24.967Z,100.00
2022-10-07T06:55:57.998Z,100.00
2022-10-07T06:58:27.682Z,100.00
2022-10-07T07:00:57.853Z,100.00
2022-10-07T07:03:26.167Z,100.00
2022-10-07T07:05:56.051Z,100.00
2022-10-07T07:08:31.787Z,100.00
2022-10-07T07:11:30.561Z,100.00
2022-10-07T07:14:04.264Z,100.00
2022-10-07T07:16:32.751Z,100.00
2022-10-07T07:19:08.811Z,100.00
2022-10-07T07:21:38.409Z,100.00
2022-10-07T07:24:07.970Z,100.00
2022-10-07T07:26:39.589Z,100.00
2022-10-07T07:29:09.372Z,100.00
2022-10-07T07:31:43.390Z,100.00
2022-10-07T07:34:13.388Z,100.00
2022-10-07T07:36:51.193Z,100.00
2022-10-07T07:39:21.034Z,100.00
2022-10-07T07:42:04.769Z,100.00
2022-10-07T07:44:34.890Z,100.00
2022-10-07T07:47:04.824Z,100.00
2022-10-07T07:49:34.372Z,100.00
2022-10-07T07:52:03.932Z,100.00
2022-10-07T07:54:38.362Z,100.00
2022-10-07T07:57:06.514Z,100.00
2022-10-07T07:59:37.576Z,100.00
2022-10-07T08:02:08.024Z,100.00
2022-10-07T08:04:38.625Z,100.00
2022-10-07T08:07:07.949Z,100.00
2022-10-07T08:09:36.192Z,100.00
2022-10-07T08:12:05.293Z,100.00
2022-10-07T08:14:33.572Z,100.00
2022-10-07T08:17:01.933Z,100.00
2022-10-07T08:19:30.756Z,100.00
2022-10-07T08:21:59.919Z,100.00
2022-10-07T08:24:30.383Z,100.00
2022-10-07T08:26:59.700Z,100.00
2022-10-07T08:29:27.637Z,100.00
2022-10-07T08:31:55.537Z,100.00
2022-10-07T08:34:23.423Z,100.00
2022-10-07T08:36:51.984Z,100.00
2022-10-07T08:39:19.832Z,100.00
2022-10-07T08:42:13.601Z,100.00
2022-10-07T08:44:48.700Z,100.00
2022-10-07T08:47:46.181Z,100.00
2022-10-07T08:50:37.101Z,100.00
2022-10-07T08:53:08.906Z,100.00
2022-10-07T08:55:43.914Z,100.00
2022-10-07T08:58:45.677Z,100.00
2022-10-07T09:01:46.046Z,100.00
2022-10-07T09:04:38.830Z,100.00
2022-10-07T09:07:31.464Z,100.00
2022-10-07T09:10:10.996Z,100.00
2022-10-07T09:13:11.294Z,100.00
2022-10-07T09:16:07.656Z,100.00
2022-10-07T09:18:50.938Z,100.00
2022-10-07T09:21:23.760Z,100.00
2022-10-07T09:23:57.575Z,100.00
2022-10-07T09:26:27.506Z,100.00
2022-10-07T09:28:55.551Z,100.00
2022-10-07T09:31:25.107Z,100.00
2022-10-07T09:33:54.351Z,100.00
2022-10-07T09:36:22.164Z,100.00
2022-10-07T09:38:55.010Z,100.00
2022-10-07T09:41:38.673Z,100.00
2022-10-07T09:44:15.646Z,100.00
2022-10-07T09:46:54.029Z,100.00
2022-10-07T09:49:41.737Z,100.00
2022-10-07T09:52:22.467Z,100.00
2022-10-07T09:54:54.589Z,100.00
2022-10-07T09:57:36.452Z,100.00
2022-10-07T10:00:13.389Z,100.00
2022-10-07T10:02:55.702Z,100.00
2022-10-07T10:05:39.704Z,100.00
2022-10-07T10:08:28.014Z,100.00
2022-10-07T10:10:59.046Z,100.00
2022-10-07T10:13:39.736Z,100.00
2022-10-07T10:16:29.820Z,100.00
2022-10-07T10:19:04.360Z,100.00
2022-10-07T10:21:42.207Z,100.00
2022-10-07T10:24:15.795Z,100.00
2022-10-07T10:27:30.932Z,100.00
2022-10-07T10:30:08.879Z,100.00
2022-10-07T10:33:13.543Z,100.00
2022-10-07T10:36:10.773Z,100.00
2022-10-07T10:39:04.329Z,100.00
2022-10-07T10:41:52.294Z,100.00
2022-10-07T10:45:02.610Z,100.00
2022-10-07T10:48:01.004Z,100.00
2022-10-07T10:50:46.296Z,100.00
2022-10-07T10:53:56.788Z,100.00
2022-10-07T10:57:13.107Z,100.00
2022-10-07T11:00:16.640Z,100.00
2022-10-07T11:03:01.008Z,100.00
2022-10-07T11:05:36.839Z,100.00
2022-10-07T11:08:18.134Z,100.00
2022-10-07T11:11:00.991Z,100.00
2022-10-07T11:14:03.742Z,100.00
2022-10-07T11:16:47.851Z,100.00
2022-10-07T11:19:43.410Z,100.00
2022-10-07T11:22:18.143Z,100.00
2022-10-07T11:24:50.933Z,100.00
2022-10-07T11:27:30.125Z,100.00
2022-10-07T11:30:10.526Z,100.00
2022-10-07T11:32:50.521Z,100.00
2022-10-07T11:35:44.099Z,97.51
2022-10-07T11:38:20.062Z,100.00
2022-10-07T11:40:53.418Z,97.17
2022-10-07T11:43:38.232Z,96.85
2022-10-07T11:46:36.608Z,95.62
2022-10-07T11:49:35.300Z,92.76
2022-10-07T11:52:10.903Z,94.36
2022-10-07T11:55:05.651Z,94.64
2022-10-07T11:57:38.250Z,92.20
2022-10-07T12:00:32.553Z,93.54
2022-10-07T12:03:18.827Z,93.32
2022-10-07T12:05:49.659Z,93.39
2022-10-07T12:08:44.335Z,90.53
2022-10-07T12:11:15.231Z,92.10
2022-10-07T12:13:50.899Z,90.13
2022-10-07T12:16:31.489Z,87.63
2022-10-07T12:19:08.241Z,87.81
2022-10-07T12:22:02.943Z,90.71
2022-10-07T12:24:36.699Z,87.09
2022-10-07T12:27:17.772Z,90.25
2022-10-07T12:30:04.191Z,88.52
2022-10-07T12:32:51.274Z,89.08
2022-10-07T12:35:43.572Z,86.31
2022-10-07T12:38:17.057Z,88.12
2022-10-07T12:41:43.903Z,88.81
2022-10-07T12:44:44.302Z,88.09
2022-10-07T12:47:29.813Z,87.55
2022-10-07T12:50:11.828Z,87.50
2022-10-07T12:52:57.522Z,92.77
2022-10-07T12:55:43.585Z,88.27
2022-10-07T12:59:02.213Z,85.76
2022-10-07T13:02:08.215Z,86.31
2022-10-07T13:05:28.641Z,90.82
2022-10-07T13:08:48.770Z,89.38
2022-10-07T13:11:50.793Z,91.23
2022-10-07T13:14:46.359Z,87.24
2022-10-07T13:17:35.465Z,90.68
2022-10-07T13:20:56.656Z,91.29
2022-10-07T13:23:27.809Z,90.03
2022-10-07T13:25:59.522Z,88.08
2022-10-07T13:28:53.087Z,87.06
2022-10-07T13:31:23.337Z,89.36
2022-10-07T13:33:53.156Z,90.76
2022-10-07T13:36:28.092Z,99.51
2022-10-07T13:39:23.275Z,89.14
2022-10-07T13:41:58.116Z,89.24
2022-10-07T13:44:32.660Z,89.37
2022-10-07T13:47:03.870Z,89.19
2022-10-07T13:49:39.105Z,90.15
2022-10-07T13:52:32.498Z,87.01
2022-10-07T13:55:00.461Z,86.58
2022-10-07T13:57:31.389Z,88.88
2022-10-07T14:00:00.264Z,88.95
2022-10-07T14:02:28.708Z,89.51
2022-10-07T14:05:05.147Z,89.25
2022-10-07T14:07:33.010Z,88.18
2022-10-07T14:10:00.869Z,87.54
2022-10-07T14:12:44.836Z,88.66
2022-10-07T14:15:17.111Z,87.30
2022-10-07T14:17:48.918Z,91.35
2022-10-07T14:20:35.114Z,90.21
2022-10-07T14:23:23.514Z,90.58
2022-10-07T14:25:58.249Z,89.37
2022-10-07T14:28:27.852Z,89.08
2022-10-07T14:31:26.337Z,89.84
2022-10-07T14:34:15.452Z,89.72
2022-10-07T14:37:13.621Z,90.34
2022-10-07T14:39:43.780Z,89.17
2022-10-07T14:42:20.192Z,87.89
2022-10-07T14:44:49.332Z,88.57
2022-10-07T14:47:21.302Z,89.81
2022-10-07T14:49:49.699Z,88.16
2022-10-07T14:52:44.479Z,91.16
2022-10-07T14:55:26.640Z,89.60
2022-10-07T14:57:54.718Z,89.54
2022-10-07T15:00:26.341Z,91.99
2022-10-07T15:02:54.799Z,90.60
2022-10-07T15:05:23.511Z,93.44
2022-10-07T15:07:51.456Z,95.54
2022-10-07T15:10:23.384Z,94.97
2022-10-07T15:12:51.517Z,95.71
2022-10-07T15:15:20.113Z,96.04
2022-10-07T15:17:48.204Z,96.62
2022-10-07T15:20:17.710Z,96.95
2022-10-07T15:22:46.045Z,96.99
2022-10-07T15:25:15.414Z,96.00
2022-10-07T15:27:43.878Z,95.66
2022-10-07T15:30:12.830Z,96.82
2022-10-07T15:32:40.724Z,95.40
2022-10-07T15:35:09.358Z,96.29
2022-10-07T15:37:37.421Z,95.87
2022-10-07T15:40:09.206Z,96.58
2022-10-07T15:42:40.459Z,98.07
2022-10-07T15:45:10.381Z,98.85
2022-10-07T15:47:39.489Z,99.55
2022-10-07T15:50:08.264Z,99.17
2022-10-07T15:52:36.159Z,98.89
2022-10-07T15:55:07.900Z,100.00
2022-10-07T15:57:36.217Z,100.00
2022-10-07T16:00:05.667Z,100.00
2022-10-07T16:02:39.684Z,100.00
2022-10-07T16:05:09.623Z,100.00
2022-10-07T16:07:37.572Z,100.00
2022-10-07T16:10:09.583Z,100.00
2022-10-07T16:12:40.648Z,100.00
2022-10-07T16:15:09.150Z,100.00
2022-10-07T16:17:36.942Z,100.00
2022-10-07T16:20:10.349Z,100.00
2022-10-07T16:22:39.130Z,100.00
2022-10-07T16:25:07.600Z,100.00
2022-10-07T16:27:54.181Z,100.00
2022-10-07T16:30:40.488Z,100.00
2022-10-07T16:33:08.887Z,100.00
2022-10-07T16:35:36.743Z,100.00
2022-10-07T16:38:05.503Z,100.00
2022-10-07T16:40:33.389Z,100.00
2022-10-07T16:43:01.418Z,100.00
2022-10-07T16:45:30.106Z,100.00
2022-10-07T16:48:01.297Z,100.00
2022-10-07T16:50:30.034Z,100.00
2022-10-07T16:52:58.142Z,100.00
2022-10-07T16:55:26.013Z,100.00
2022-10-07T16:57:54.302Z,100.00
2022-10-07T17:00:22.616Z,100.00
2022-10-07T17:02:51.387Z,100.00
2022-10-07T17:05:19.682Z,100.00
2022-10-07T17:07:48.663Z,100.00
2022-10-07T17:10:17.262Z,100.00
2022-10-07T17:12:46.061Z,100.00
2022-10-07T17:15:14.036Z,100.00
2022-10-07T17:17:42.175Z,100.00
2022-10-07T17:20:10.329Z,100.00
2022-10-07T17:22:38.228Z,100.00
2022-10-07T17:25:07.921Z,100.00
2022-10-07T17:27:35.854Z,100.00
2022-10-07T17:30:04.826Z,100.00
2022-10-07T17:32:32.890Z,100.00
2022-10-07T17:35:00.953Z,100.00
2022-10-07T17:37:28.810Z,100.00
2022-10-07T17:39:56.677Z,100.00
2022-10-07T17:42:24.541Z,100.00
2022-10-07T17:44:52.450Z,100.00
2022-10-07T17:47:20.372Z,100.00
2022-10-07T17:49:48.630Z,100.00
2022-10-07T17:52:16.751Z,100.00
2022-10-07T17:54:44.585Z,100.00
2022-10-07T17:57:13.827Z,100.00
2022-10-07T17:59:41.670Z,100.00
2022-10-07T18:02:10.973Z,100.00
2022-10-07T18:04:39.266Z,100.00
2022-10-07T18:07:13.130Z,100.00
2022-10-07T18:09:46.302Z,100.00
2022-10-07T18:12:47.354Z,100.00
2022-10-07T18:15:37.044Z,100.00
2022-10-07T18:18:25.455Z,100.00
2022-10-07T18:20:55.063Z,100.00
2022-10-07T18:23:23.191Z,100.00
2022-10-07T18:25:51.048Z,100.00
2022-10-07T18:28:19.036Z,100.00
2022-10-07T18:30:47.273Z,100.00
2022-10-07T18:33:15.070Z,100.00
2022-10-07T18:35:43.808Z,100.00
2022-10-07T18:38:11.664Z,100.00
2022-10-07T18:40:39.477Z,100.00
2022-10-07T18:43:07.346Z,100.00
2022-10-07T18:45:35.224Z,100.00
2022-10-07T18:48:03.119Z,100.00
2022-10-07T18:50:33.560Z,100.00
2022-10-07T18:53:01.766Z,100.00
2022-10-07T18:55:30.214Z,100.00
2022-10-07T18:57:58.011Z,100.00
2022-10-07T19:00:25.845Z,100.00
2022-10-07T19:02:53.934Z,100.00
2022-10-07T19:05:21.737Z,100.00
2022-10-07T19:07:49.848Z,100.00
2022-10-07T19:10:17.819Z,100.00
2022-10-07T19:13:04.813Z,100.00
2022-10-07T19:15:33.489Z,100.00
2022-10-07T19:18:01.353Z,100.00
2022-10-07T19:20:29.279Z,100.00
2022-10-07T19:22:57.924Z,100.00
2022-10-07T19:25:47.192Z,100.00
2022-10-07T19:28:15.208Z,100.00
2022-10-07T19:30:44.897Z,100.00
2022-10-07T19:33:12.977Z,100.00
2022-10-07T19:35:41.207Z,100.00
2022-10-07T19:38:09.595Z,100.00
2022-10-07T19:40:45.168Z,100.00
2022-10-07T19:43:13.443Z,100.00
2022-10-07T19:45:42.469Z,100.00
2022-10-07T19:48:14.493Z,100.00
2022-10-07T19:50:42.562Z,100.00
2022-10-07T19:53:10.458Z,100.00
2022-10-07T19:55:44.210Z,100.00
2022-10-07T19:58:12.137Z,100.00
2022-10-07T20:00:39.941Z,100.00
2022-10-07T20:03:09.147Z,100.00
2022-10-07T20:05:43.158Z,100.00
2022-10-07T20:08:12.898Z,100.00
2022-10-07T20:10:40.694Z,100.00
2022-10-07T20:13:08.560Z,100.00
2022-10-07T20:15:37.261Z,100.00
2022-10-07T20:18:05.436Z,100.00
2022-10-07T20:20:33.794Z,100.00
2022-10-07T20:23:02.440Z,100.00
2022-10-07T20:25:30.497Z,100.00
2022-10-07T20:27:58.441Z,100.00
2022-10-07T20:30:26.442Z,100.00
2022-10-07T20:32:54.434Z,100.00
2022-10-07T20:35:23.621Z,100.00
2022-10-07T20:37:51.506Z,100.00
2022-10-07T20:40:38.060Z,100.00
2022-10-07T20:43:05.984Z,100.00
2022-10-07T20:45:53.854Z,100.00
2022-10-07T20:48:22.620Z,100.00
2022-10-07T20:50:51.055Z,100.00
2022-10-07T20:53:18.914Z,100.00
2022-10-07T20:55:46.920Z,100.00
2022-10-07T20:58:14.995Z,100.00
2022-10-07T21:00:42.892Z,100.00
2022-10-07T21:03:10.759Z,100.00
2022-10-07T21:05:39.464Z,100.00
2022-10-07T21:08:07.321Z,100.00
2022-10-07T21:10:35.734Z,100.00
2022-10-07T21:13:03.949Z,100.00
2022-10-07T21:15:32.125Z,100.00
2022-10-07T21:17:59.909Z,100.00
2022-10-07T21:20:28.267Z,100.00
2022-10-07T21:22:56.464Z,100.00
2022-10-07T21:25:24.328Z,100.00
2022-10-07T21:27:53.247Z,100.00
2022-10-07T21:30:21.191Z,100.00
2022-10-07T21:32:50.194Z,100.00
2022-10-07T21:35:18.424Z,100.00
2022-10-07T21:37:46.329Z,100.00
2022-10-07T21:40:14.367Z,100.00
2022-10-07T21:42:42.276Z,100.00
2022-10-07T21:45:10.653Z,100.00
2022-10-07T21:47:38.634Z,100.00
2022-10-07T21:50:07.783Z,100.00
2022-10-07T21:52:35.680Z,100.00
2022-10-07T21:55:03.921Z,100.00
2022-10-07T21:57:31.843Z,100.00
2022-10-07T22:00:00.112Z,100.00
2022-10-07T22:02:29.353Z,100.00
2022-10-07T22:04:57.890Z,100.00
2022-10-07T22:07:44.057Z,100.00
2022-10-07T22:10:11.894Z,100.00
2022-10-07T22:12:40.454Z,100.00
2022-10-07T22:15:08.779Z,100.00
2022-10-07T22:17:36.851Z,100.00
2022-10-07T22:20:05.054Z,100.00
2022-10-07T22:22:33.769Z,100.00
2022-10-07T22:25:01.602Z,100.00
2022-10-07T22:27:29.452Z,100.00
2022-10-07T22:29:57.387Z,100.00
2022-10-07T22:32:25.263Z,100.00
2022-10-07T22:35:11.974Z,100.00
2022-10-07T22:37:40.817Z,100.00
2022-10-07T22:40:09.554Z,100.00
2022-10-07T22:42:37.710Z,100.00
2022-10-07T22:45:06.405Z,100.00
2022-10-07T22:47:35.655Z,100.00
2022-10-07T22:50:08.262Z,100.00
2022-10-07T22:52:36.566Z,100.00
2022-10-07T22:55:07.180Z,100.00
2022-10-07T22:57:38.026Z,100.00
2022-10-07T23:00:07.378Z,100.00
2022-10-07T23:02:35.346Z,100.00
2022-10-07T23:05:03.754Z,100.00
2022-10-07T23:07:32.459Z,100.00
2022-10-07T23:10:00.285Z,100.00
2022-10-07T23:12:28.217Z,100.00
2022-10-07T23:14:56.173Z,100.00
2022-10-07T23:17:23.968Z,100.00
2022-10-07T23:19:52.138Z,100.00
2022-10-07T23:22:20.532Z,100.00
2022-10-07T23:24:48.417Z,100.00
2022-10-07T23:27:16.659Z,100.00
2022-10-07T23:29:44.573Z,100.00
2022-10-07T23:32:12.838Z,100.00
2022-10-07T23:34:41.051Z,100.00
2022-10-07T23:37:09.618Z,100.00
2022-10-07T23:39:37.847Z,100.00
2022-10-07T23:42:06.134Z,100.00
2022-10-07T23:44:34.390Z,100.00
2022-10-07T23:47:02.627Z,100.00
2022-10-07T23:49:30.900Z,100.00
2022-10-07T23:51:59.357Z,100.00
2022-10-07T23:54:27.654Z,100.00
2022-10-07T23:56:55.473Z,100.00
2022-10-07T23:59:23.934Z,100.00
